createdAt,value
2023-03-15T00:00:43.144Z,98322.66
2023-03-15T00:03:12.081Z,98319.44
2023-03-15T00:05:43.243Z,98329.66
2023-03-15T00:08:12.177Z,98328.84
2023-03-15T00:10:41.719Z,98341.16
2023-03-15T00:13:10.353Z,98344.25
2023-03-15T00:15:46.815Z,98350.25
2023-03-15T00:18:15.423Z,98362.47
2023-03-15T00:20:43.847Z,98364.94
2023-03-15T00:23:12.323Z,98379.69
2023-03-15T00:25:40.722Z,98375.72
2023-03-15T00:28:09.565Z,98392.25
2023-03-15T00:30:39.126Z,98391.06
2023-03-15T00:33:07.044Z,98393.22
2023-03-15T00:35:39.381Z,98396.56
2023-03-15T00:38:07.438Z,98405.31
2023-03-15T00:40:35.639Z,98393.75
2023-03-15T00:43:04.232Z,98403.13
2023-03-15T00:45:32.108Z,98403.97
2023-03-15T00:48:01.649Z,98400.09
2023-03-15T00:50:29.627Z,98399.78
2023-03-15T00:52:57.563Z,98404.00
2023-03-15T00:55:27.030Z,98411.28
2023-03-15T00:57:54.993Z,98412.75
2023-03-15T01:00:25.251Z,98424.44
2023-03-15T01:02:53.673Z,98428.25
2023-03-15T01:05:26.302Z,98429.78
2023-03-15T01:07:54.365Z,98437.00
2023-03-15T01:10:22.197Z,98431.88
2023-03-15T01:12:50.098Z,98436.47
2023-03-15T01:15:18.185Z,98440.38
2023-03-15T01:17:46.159Z,98441.19
2023-03-15T01:20:17.361Z,98449.19
2023-03-15T01:22:46.632Z,98451.91
2023-03-15T01:25:16.000Z,98455.13
2023-03-15T01:27:45.693Z,98452.09
2023-03-15T01:30:14.074Z,98452.66
2023-03-15T01:32:41.924Z,98467.66
2023-03-15T01:35:10.331Z,98452.94
2023-03-15T01:37:38.222Z,98455.41
2023-03-15T01:40:14.575Z,98463.22
2023-03-15T01:43:13.128Z,98464.56
2023-03-15T01:45:58.029Z,98464.19
2023-03-15T01:48:30.832Z,98468.81
2023-03-15T01:51:00.109Z,98475.47
2023-03-15T01:53:31.686Z,98476.31
2023-03-15T01:56:02.659Z,98482.53
2023-03-15T01:58:41.462Z,98481.91
2023-03-15T02:01:10.868Z,98490.88
2023-03-15T02:03:48.505Z,98493.09
2023-03-15T02:06:20.103Z,98499.03
2023-03-15T02:08:57.040Z,98502.66
2023-03-15T02:11:28.921Z,98495.25
2023-03-15T02:13:58.840Z,98495.97
2023-03-15T02:16:27.370Z,98506.56
2023-03-15T02:19:00.107Z,98505.25
2023-03-15T02:21:39.993Z,98494.94
2023-03-15T02:24:20.814Z,98505.47
2023-03-15T02:26:55.070Z,98506.09
2023-03-15T02:29:26.520Z,98507.00
2023-03-15T02:31:54.838Z,98509.59
2023-03-15T02:34:26.178Z,98514.38
2023-03-15T02:36:56.512Z,98518.81
2023-03-15T02:39:25.553Z,98517.53
2023-03-15T02:41:56.139Z,98525.00
2023-03-15T02:44:30.431Z,98530.63
2023-03-15T02:47:02.677Z,98536.31
2023-03-15T02:49:33.954Z,98540.00
2023-03-15T02:52:01.926Z,98538.78
2023-03-15T02:54:29.753Z,98542.78
2023-03-15T02:56:57.586Z,98552.94
2023-03-15T02:59:26.895Z,98561.56
2023-03-15T03:01:54.941Z,98566.16
2023-03-15T03:04:23.004Z,98578.09
2023-03-15T03:06:50.981Z,98577.97
2023-03-15T03:09:22.636Z,98573.16
2023-03-15T03:11:50.545Z,98588.91
2023-03-15T03:14:19.506Z,98596.44
2023-03-15T03:16:48.815Z,98595.31
2023-03-15T03:19:19.449Z,98602.25
2023-03-15T03:21:47.358Z,98596.94
2023-03-15T03:24:16.504Z,98602.88
2023-03-15T03:26:46.097Z,98609.16
2023-03-15T03:29:16.573Z,98616.63
2023-03-15T03:31:46.262Z,98620.19
2023-03-15T03:34:15.739Z,98620.59
2023-03-15T03:36:44.425Z,98630.56
2023-03-15T03:39:15.777Z,98631.41
2023-03-15T03:41:45.260Z,98633.38
2023-03-15T03:44:14.218Z,98638.91
2023-03-15T03:46:43.544Z,98645.84
2023-03-15T03:49:14.765Z,98653.06
2023-03-15T03:51:42.671Z,98652.53
2023-03-15T03:54:10.517Z,98651.94
2023-03-15T03:56:39.699Z,98657.22
2023-03-15T03:59:07.604Z,98659.94
2023-03-15T04:01:58.188Z,98661.13
2023-03-15T04:04:27.565Z,98673.38
2023-03-15T04:06:55.698Z,98675.09
2023-03-15T04:09:28.129Z,98673.38
2023-03-15T04:11:56.024Z,98681.69
2023-03-15T04:14:25.772Z,98689.03
2023-03-15T04:16:54.578Z,98692.47
2023-03-15T04:19:24.320Z,98693.97
2023-03-15T04:21:54.469Z,98698.34
2023-03-15T04:24:34.037Z,98696.25
2023-03-15T04:27:14.504Z,98700.94
2023-03-15T04:30:05.264Z,98708.06
2023-03-15T04:32:46.190Z,98706.94
2023-03-15T04:35:30.615Z,98710.53
2023-03-15T04:38:18.601Z,98709.69
2023-03-15T04:41:02.153Z,98709.41
2023-03-15T04:44:02.335Z,98707.47
2023-03-15T04:46:59.840Z,98713.22
2023-03-15T04:50:00.925Z,98717.59
2023-03-15T04:52:49.531Z,98720.22
2023-03-15T04:55:24.611Z,98708.53
2023-03-15T04:58:18.832Z,98709.63
2023-03-15T05:01:19.025Z,98718.69
2023-03-15T05:03:57.548Z,98717.53
2023-03-15T05:06:51.450Z,98706.13
2023-03-15T05:09:28.292Z,98711.84
2023-03-15T05:12:18.749Z,98712.03
2023-03-15T05:15:08.075Z,98710.88
2023-03-15T05:17:59.174Z,98717.81
2023-03-15T05:20:43.607Z,98714.25
2023-03-15T05:23:32.594Z,98707.34
2023-03-15T05:26:19.163Z,98711.25
2023-03-15T05:29:08.789Z,98712.69
2023-03-15T05:31:52.328Z,98711.13
2023-03-15T05:34:32.278Z,98716.22
2023-03-15T05:37:32.926Z,98724.19
2023-03-15T05:40:24.252Z,98726.25
2023-03-15T05:43:03.879Z,98718.31
2023-03-15T05:45:51.357Z,98723.16
2023-03-15T05:48:38.441Z,98728.25
2023-03-15T05:51:27.491Z,98733.72
2023-03-15T05:54:33.695Z,98729.34
2023-03-15T05:57:19.800Z,98733.97
2023-03-15T06:00:26.122Z,98736.06
2023-03-15T06:03:02.741Z,98737.59
2023-03-15T06:05:47.397Z,98734.75
2023-03-15T06:08:20.320Z,98736.78
2023-03-15T06:10:51.565Z,98742.28
2023-03-15T06:13:19.612Z,98743.81
2023-03-15T06:15:48.456Z,98749.75
2023-03-15T06:18:19.592Z,98746.31
2023-03-15T06:20:50.044Z,98755.06
2023-03-15T06:23:19.496Z,98759.81
2023-03-15T06:25:48.510Z,98759.25
2023-03-15T06:28:17.587Z,98761.78
2023-03-15T06:30:51.681Z,98767.00
2023-03-15T06:33:25.260Z,98764.91
2023-03-15T06:35:56.622Z,98767.94
2023-03-15T06:38:24.672Z,98765.03
2023-03-15T06:40:52.521Z,98773.13
2023-03-15T06:43:20.389Z,98765.25
2023-03-15T06:45:48.961Z,98772.34
2023-03-15T06:48:18.398Z,98775.34
2023-03-15T06:50:48.221Z,98776.00
2023-03-15T06:53:17.829Z,98770.13
2023-03-15T06:55:47.039Z,98771.31
2023-03-15T06:58:15.319Z,98769.09
2023-03-15T07:00:44.338Z,98774.06
2023-03-15T07:03:14.371Z,98772.69
2023-03-15T07:05:42.286Z,98779.78
2023-03-15T07:08:11.534Z,98770.69
2023-03-15T07:10:39.367Z,98769.13
2023-03-15T07:13:07.328Z,98771.25
2023-03-15T07:15:37.586Z,98776.50
2023-03-15T07:18:05.477Z,98774.09
2023-03-15T07:20:34.686Z,98782.31
2023-03-15T07:23:03.395Z,98777.69
2023-03-15T07:25:37.594Z,98791.81
2023-03-15T07:28:10.060Z,98793.63
2023-03-15T07:30:37.876Z,98795.91
2023-03-15T07:33:05.877Z,98793.31
2023-03-15T07:35:33.902Z,98796.88
2023-03-15T07:38:04.368Z,98798.38
2023-03-15T07:40:33.743Z,98794.38
2023-03-15T07:43:01.477Z,98802.56
2023-03-15T07:45:29.601Z,98799.63
2023-03-15T07:48:00.772Z,98801.28
2023-03-15T07:50:28.711Z,98806.28
2023-03-15T07:52:56.554Z,98799.41
2023-03-15T07:55:25.313Z,98800.19
2023-03-15T07:57:54.575Z,98793.06
2023-03-15T08:00:23.047Z,98790.91
2023-03-15T08:02:50.966Z,98795.09
2023-03-15T08:05:19.088Z,98800.44
2023-03-15T08:07:47.268Z,98803.41
2023-03-15T08:10:18.665Z,98807.13
2023-03-15T08:12:46.609Z,98804.50
2023-03-15T08:15:16.342Z,98799.97
2023-03-15T08:17:44.289Z,98801.19
2023-03-15T08:20:17.544Z,98804.56
2023-03-15T08:22:45.975Z,98805.97
2023-03-15T08:25:19.073Z,98802.38
2023-03-15T08:27:47.116Z,98798.22
2023-03-15T08:30:17.598Z,98801.94
2023-03-15T08:32:47.158Z,98805.19
2023-03-15T08:35:17.477Z,98804.47
2023-03-15T08:37:46.989Z,98804.72
2023-03-15T08:40:15.591Z,98807.94
2023-03-15T08:42:43.544Z,98806.25
2023-03-15T08:45:12.317Z,98804.53
2023-03-15T08:47:41.939Z,98807.91
2023-03-15T08:50:14.460Z,98812.38
2023-03-15T08:52:43.064Z,98807.25
2023-03-15T08:55:14.359Z,98818.59
2023-03-15T08:57:43.011Z,98814.66
2023-03-15T09:00:18.446Z,98814.66
2023-03-15T09:02:49.694Z,98807.50
2023-03-15T09:05:18.175Z,98811.03
2023-03-15T09:07:46.691Z,98814.31
2023-03-15T09:10:16.498Z,98820.72
2023-03-15T09:12:44.700Z,98823.47
2023-03-15T09:15:12.950Z,98824.31
2023-03-15T09:17:41.258Z,98828.72
2023-03-15T09:20:15.419Z,98828.31
2023-03-15T09:22:44.204Z,98831.56
2023-03-15T09:25:12.049Z,98834.50
2023-03-15T09:27:40.008Z,98832.91
2023-03-15T09:30:08.928Z,98844.91
2023-03-15T09:32:37.116Z,98839.41
2023-03-15T09:35:06.117Z,98838.25
2023-03-15T09:37:36.191Z,98856.41
2023-03-15T09:40:04.783Z,98846.25
2023-03-15T09:42:43.124Z,98855.47
2023-03-15T09:45:19.342Z,98850.66
2023-03-15T09:47:57.018Z,98857.00
2023-03-15T09:50:30.527Z,98853.84
2023-03-15T09:53:05.755Z,98855.41
2023-03-15T09:55:33.669Z,98853.25
2023-03-15T09:58:04.263Z,98862.75
2023-03-15T10:00:38.596Z,98855.56
2023-03-15T10:03:09.877Z,98855.53
2023-03-15T10:05:43.010Z,98849.66
2023-03-15T10:08:17.485Z,98853.34
2023-03-15T10:10:51.947Z,98852.78
2023-03-15T10:13:30.842Z,98846.69
2023-03-15T10:16:12.347Z,98846.63
2023-03-15T10:18:57.633Z,98837.66
2023-03-15T10:21:36.241Z,98842.69
2023-03-15T10:24:06.964Z,98854.38
2023-03-15T10:26:39.648Z,98849.53
2023-03-15T10:29:14.868Z,98846.38
2023-03-15T10:31:46.342Z,98847.63
2023-03-15T10:34:16.684Z,98843.19
2023-03-15T10:36:50.311Z,98837.50
2023-03-15T10:39:19.545Z,98842.53
2023-03-15T10:41:49.979Z,98840.22
2023-03-15T10:44:21.272Z,98837.59
2023-03-15T10:47:05.019Z,98847.84
2023-03-15T10:49:42.211Z,98827.69
2023-03-15T10:52:28.258Z,98831.19
2023-03-15T10:55:03.923Z,98837.75
2023-03-15T10:57:39.080Z,98833.75
2023-03-15T11:00:23.958Z,98833.13
2023-03-15T11:03:01.579Z,98837.72
2023-03-15T11:05:33.084Z,98848.00
2023-03-15T11:08:02.335Z,98838.75
2023-03-15T11:10:35.816Z,98837.91
2023-03-15T11:13:21.945Z,98832.88
2023-03-15T11:15:57.045Z,98837.16
2023-03-15T11:18:30.950Z,98843.00
2023-03-15T11:20:59.606Z,98842.72
2023-03-15T11:23:30.915Z,98839.19
2023-03-15T11:26:00.422Z,98835.75
2023-03-15T11:28:31.662Z,98829.38
2023-03-15T11:31:01.026Z,98837.72
2023-03-15T11:33:38.318Z,98834.81
2023-03-15T11:36:12.220Z,98834.91
2023-03-15T11:38:44.168Z,98841.09
2023-03-15T11:41:23.702Z,98833.00
2023-03-15T11:43:59.495Z,98830.22
2023-03-15T11:46:33.116Z,98831.06
2023-03-15T11:49:07.372Z,98838.13
2023-03-15T11:51:37.573Z,98840.00
2023-03-15T11:54:12.568Z,98838.84
2023-03-15T11:56:54.253Z,98844.31
2023-03-15T11:59:27.594Z,98846.28
2023-03-15T12:02:00.860Z,98844.34
2023-03-15T12:04:45.302Z,98855.63
2023-03-15T12:07:34.648Z,98844.03
2023-03-15T12:10:22.127Z,98852.38
2023-03-15T12:13:18.472Z,98852.91
2023-03-15T12:15:48.914Z,98859.00
2023-03-15T12:18:23.163Z,98851.19
2023-03-15T12:20:58.543Z,98851.09
2023-03-15T12:23:38.966Z,98851.56
2023-03-15T12:26:10.883Z,98848.81
2023-03-15T12:28:45.037Z,98847.75
2023-03-15T12:31:15.273Z,98846.66
2023-03-15T12:33:49.698Z,98843.16
2023-03-15T12:36:30.740Z,98845.84
2023-03-15T12:39:04.374Z,98843.81
2023-03-15T12:41:39.063Z,98881.66
2023-03-15T12:44:38.370Z,98859.06
2023-03-15T12:47:07.305Z,98866.84
2023-03-15T12:49:38.055Z,98873.38
2023-03-15T12:52:14.459Z,98870.81
2023-03-15T12:54:46.962Z,98875.75
2023-03-15T12:57:22.041Z,98881.13
2023-03-15T12:59:55.770Z,98880.91
2023-03-15T13:02:42.120Z,98892.19
2023-03-15T13:05:20.192Z,98900.16
2023-03-15T13:07:58.167Z,98898.03
2023-03-15T13:10:41.107Z,98897.94
2023-03-15T13:13:38.798Z,98886.84
2023-03-15T13:16:18.656Z,98882.97
2023-03-15T13:18:55.828Z,98880.25
2023-03-15T13:21:29.787Z,98871.94
2023-03-15T13:23:59.951Z,98872.69
2023-03-15T13:26:40.784Z,98866.50
2023-03-15T13:29:17.553Z,98866.47
2023-03-15T13:31:47.827Z,98876.72
2023-03-15T13:34:20.856Z,98873.75
2023-03-15T13:36:50.833Z,98875.00
2023-03-15T13:39:23.453Z,98878.84
2023-03-15T13:41:57.813Z,98878.22
2023-03-15T13:44:27.238Z,98877.81
2023-03-15T13:46:57.925Z,98879.03
2023-03-15T13:49:30.934Z,98884.06
2023-03-15T13:52:00.088Z,98883.00
2023-03-15T13:54:30.752Z,98887.47
2023-03-15T13:57:03.647Z,98890.72
2023-03-15T13:59:36.328Z,98897.06
2023-03-15T14:02:07.213Z,98894.69
2023-03-15T14:04:38.723Z,98902.47
2023-03-15T14:07:22.438Z,98894.09
2023-03-15T14:09:50.283Z,98896.22
2023-03-15T14:12:23.649Z,98898.91
2023-03-15T14:14:53.661Z,98892.59
2023-03-15T14:17:27.602Z,98887.88
2023-03-15T14:19:57.814Z,98886.00
2023-03-15T14:22:26.104Z,98877.63
2023-03-15T14:24:54.366Z,98886.69
2023-03-15T14:27:24.306Z,98874.34
2023-03-15T14:29:55.959Z,98878.63
2023-03-15T14:32:31.215Z,98879.88
2023-03-15T14:35:05.139Z,98879.13
2023-03-15T14:37:38.157Z,98880.44
2023-03-15T14:40:21.026Z,98890.16
2023-03-15T14:42:50.015Z,98882.81
2023-03-15T14:45:19.084Z,98897.19
2023-03-15T14:47:57.080Z,98910.97
2023-03-15T14:50:27.825Z,98920.66
2023-03-15T14:52:57.503Z,98920.00
2023-03-15T14:55:30.600Z,98924.63
2023-03-15T14:57:58.777Z,98913.72
2023-03-15T15:00:27.265Z,98917.56
2023-03-15T15:02:58.322Z,98914.50
2023-03-15T15:05:32.674Z,98912.34
2023-03-15T15:08:13.170Z,98914.06
2023-03-15T15:10:44.777Z,98912.28
2023-03-15T15:13:18.918Z,98911.53
2023-03-15T15:15:55.128Z,98928.53
2023-03-15T15:18:26.975Z,98934.38
2023-03-15T15:20:59.416Z,98929.56
2023-03-15T15:23:29.881Z,98929.25
2023-03-15T15:26:19.911Z,98939.00
2023-03-15T15:28:57.538Z,98944.94
2023-03-15T15:31:27.127Z,98956.00
2023-03-15T15:33:57.586Z,98951.50
2023-03-15T15:36:28.090Z,98947.47
2023-03-15T15:39:01.231Z,98951.25
2023-03-15T15:41:31.535Z,98947.66
2023-03-15T15:43:59.881Z,98954.38
2023-03-15T15:46:28.493Z,98954.06
2023-03-15T15:48:58.880Z,98951.25
2023-03-15T15:51:29.574Z,98944.81
2023-03-15T15:53:59.617Z,98937.53
2023-03-15T15:56:33.758Z,98941.56
2023-03-15T15:59:03.269Z,98948.59
2023-03-15T16:01:31.535Z,98951.25
2023-03-15T16:04:02.090Z,98953.88
2023-03-15T16:06:30.531Z,98951.25
2023-03-15T16:08:58.677Z,98952.78
2023-03-15T16:11:26.947Z,98951.22
2023-03-15T16:13:55.020Z,98953.13
2023-03-15T16:16:23.030Z,98955.47
2023-03-15T16:18:51.146Z,98952.00
2023-03-15T16:21:27.526Z,98953.41
2023-03-15T16:23:59.304Z,98968.22
2023-03-15T16:26:27.177Z,98967.94
2023-03-15T16:28:55.540Z,98961.13
2023-03-15T16:31:23.644Z,98965.53
2023-03-15T16:33:51.939Z,98964.78
2023-03-15T16:36:23.358Z,98961.88
2023-03-15T16:38:51.343Z,98963.06
2023-03-15T16:41:19.281Z,98976.03
2023-03-15T16:43:50.644Z,98979.91
2023-03-15T16:46:18.821Z,98987.94
2023-03-15T16:48:46.886Z,98977.91
2023-03-15T16:51:16.987Z,98980.34
2023-03-15T16:53:46.387Z,98977.31
2023-03-15T16:56:15.865Z,98984.28
2023-03-15T16:58:45.426Z,98979.56
2023-03-15T17:01:18.449Z,98979.63
2023-03-15T17:03:47.796Z,98989.97
2023-03-15T17:06:21.005Z,98990.19
2023-03-15T17:08:53.108Z,98996.28
2023-03-15T17:11:21.577Z,98998.13
2023-03-15T17:13:50.341Z,99002.69
2023-03-15T17:16:22.240Z,99009.31
2023-03-15T17:18:51.271Z,99019.19
2023-03-15T17:21:24.040Z,99010.53
2023-03-15T17:23:54.739Z,99012.72
2023-03-15T17:26:43.692Z,99013.47
2023-03-15T17:29:15.771Z,99020.19
2023-03-15T17:31:45.070Z,99015.72
2023-03-15T17:34:15.459Z,99030.84
2023-03-15T17:36:51.559Z,99026.91
2023-03-15T17:39:23.640Z,99032.75
2023-03-15T17:41:52.385Z,99029.63
2023-03-15T17:44:21.328Z,99025.25
2023-03-15T17:46:49.422Z,99028.88
2023-03-15T17:49:18.250Z,99038.16
2023-03-15T17:51:48.752Z,99037.03
2023-03-15T17:54:24.881Z,99042.13
2023-03-15T17:56:53.651Z,99037.97
2023-03-15T17:59:21.680Z,99033.72
2023-03-15T18:01:49.669Z,99040.38
2023-03-15T18:04:19.672Z,99044.03
2023-03-15T18:06:47.957Z,99041.41
2023-03-15T18:09:18.376Z,99036.59
2023-03-15T18:11:50.537Z,99036.66
2023-03-15T18:14:29.936Z,99042.56
2023-03-15T18:16:59.570Z,99046.94
2023-03-15T18:19:27.784Z,99048.22
2023-03-15T18:21:55.741Z,99051.63
2023-03-15T18:24:26.596Z,99054.59
2023-03-15T18:26:56.009Z,99062.38
2023-03-15T18:29:24.139Z,99071.97
2023-03-15T18:31:51.990Z,99070.03
2023-03-15T18:34:22.062Z,99063.41
2023-03-15T18:36:50.074Z,99065.53
2023-03-15T18:39:18.031Z,99060.28
2023-03-15T18:41:46.445Z,99055.03
2023-03-15T18:44:15.883Z,99063.53
2023-03-15T18:46:44.211Z,99067.06
2023-03-15T18:49:12.164Z,99061.72
2023-03-15T18:51:41.474Z,99070.03
2023-03-15T18:54:09.556Z,99067.41
2023-03-15T18:56:37.487Z,99071.97
2023-03-15T18:59:05.646Z,99075.06
2023-03-15T19:01:39.845Z,99076.19
2023-03-15T19:04:11.332Z,99077.91
2023-03-15T19:06:39.669Z,99090.63
2023-03-15T19:09:07.657Z,99088.84
2023-03-15T19:11:38.349Z,99095.06
2023-03-15T19:14:06.351Z,99080.91
2023-03-15T19:16:36.329Z,99083.59
2023-03-15T19:19:04.640Z,99077.88
2023-03-15T19:21:32.636Z,99082.47
2023-03-15T19:24:06.627Z,99076.50
2023-03-15T19:26:34.916Z,99079.31
2023-03-15T19:29:05.761Z,99080.63
2023-03-15T19:32:24.427Z,99078.75
2023-03-15T19:35:34.412Z,99090.19
2023-03-15T19:38:09.439Z,99095.72
2023-03-15T19:44:06.604Z,99098.03
2023-03-15T19:46:37.398Z,99102.38
2023-03-15T19:49:05.773Z,99112.03
2023-03-15T19:51:36.734Z,99107.75
2023-03-15T19:54:05.928Z,99101.22
2023-03-15T19:56:34.359Z,99113.03
2023-03-15T19:59:05.424Z,99108.13
2023-03-15T20:01:33.606Z,99115.03
2023-03-15T20:04:01.952Z,99111.16
2023-03-15T20:06:32.098Z,99119.03
2023-03-15T20:09:01.945Z,99118.59
2023-03-15T20:11:30.196Z,99121.34
2023-03-15T20:13:58.347Z,99124.78
2023-03-15T20:16:27.458Z,99124.16
2023-03-15T20:18:56.073Z,99125.34
2023-03-15T20:21:24.465Z,99131.44
2023-03-15T20:23:52.346Z,99131.19
2023-03-15T20:26:23.755Z,99127.72
2023-03-15T20:28:51.788Z,99125.31
2023-03-15T20:31:21.685Z,99122.72
2023-03-15T20:33:51.203Z,99124.53
2023-03-15T20:36:19.797Z,99119.75
2023-03-15T20:38:47.793Z,99123.69
2023-03-15T20:41:15.743Z,99133.63
2023-03-15T20:43:45.130Z,99134.91
2023-03-15T20:46:13.758Z,99137.50
2023-03-15T20:48:41.795Z,99136.91
2023-03-15T20:51:09.720Z,99131.00
2023-03-15T20:53:38.379Z,99134.28
2023-03-15T20:56:07.442Z,99135.13
2023-03-15T20:58:35.694Z,99137.19
2023-03-15T21:01:07.396Z,99140.13
2023-03-15T21:03:38.382Z,99136.03
2023-03-15T21:06:07.384Z,99147.59
2023-03-15T21:08:35.686Z,99145.78
2023-03-15T21:11:04.575Z,99142.59
2023-03-15T21:13:32.971Z,99144.84
2023-03-15T21:16:04.052Z,99149.09
2023-03-15T21:18:36.078Z,99144.03
2023-03-15T21:21:06.187Z,99155.03
2023-03-15T21:23:35.216Z,99161.59
2023-03-15T21:26:04.926Z,99155.28
2023-03-15T21:28:33.135Z,99140.25
2023-03-15T21:31:01.211Z,99145.34
2023-03-15T21:33:31.053Z,99144.34
2023-03-15T21:36:01.375Z,99149.19
2023-03-15T21:38:31.435Z,99149.34
2023-03-15T21:41:00.206Z,99149.91
2023-03-15T21:43:29.849Z,99146.13
2023-03-15T21:46:00.177Z,99143.28
2023-03-15T21:48:28.358Z,99151.03
2023-03-15T21:50:56.348Z,99148.94
2023-03-15T21:53:28.246Z,99150.78
2023-03-15T21:55:56.981Z,99144.09
2023-03-15T21:58:25.542Z,99148.09
2023-03-15T22:00:59.409Z,99158.47
2023-03-15T22:03:27.940Z,99151.06
2023-03-15T22:05:56.010Z,99151.00
2023-03-15T22:08:27.985Z,99150.13
2023-03-15T22:10:56.608Z,99162.09
2023-03-15T22:13:24.918Z,99151.25
2023-03-15T22:15:53.538Z,99159.53
2023-03-15T22:18:21.496Z,99157.50
2023-03-15T22:20:50.172Z,99159.19
2023-03-15T22:23:18.806Z,99154.09
2023-03-15T22:25:48.089Z,99153.28
2023-03-15T22:28:16.364Z,99155.53
2023-03-15T22:30:47.428Z,99163.03
2023-03-15T22:33:19.175Z,99161.97
2023-03-15T22:35:47.354Z,99167.63
2023-03-15T22:38:15.728Z,99169.69
2023-03-15T22:40:43.642Z,99161.13
2023-03-15T22:43:12.905Z,99156.31
2023-03-15T22:45:41.251Z,99156.19
2023-03-15T22:48:09.094Z,99157.44
2023-03-15T22:50:37.205Z,99155.44
2023-03-15T22:53:04.988Z,99151.66
2023-03-15T22:55:32.846Z,99155.47
2023-03-15T22:58:00.715Z,99161.94
2023-03-15T23:00:30.221Z,99155.81
2023-03-15T23:02:58.166Z,99150.59
2023-03-15T23:05:26.048Z,99153.66
2023-03-15T23:07:53.856Z,99139.78
2023-03-15T23:10:21.915Z,99139.88
2023-03-15T23:12:49.781Z,99135.34
2023-03-15T23:15:18.385Z,99136.38
2023-03-15T23:17:47.711Z,99136.16
2023-03-15T23:20:16.773Z,99133.47
2023-03-15T23:22:45.100Z,99142.78
2023-03-15T23:25:14.136Z,99133.94
2023-03-15T23:27:42.957Z,99131.84
2023-03-15T23:30:12.052Z,99138.44
2023-03-15T23:32:40.397Z,99125.38
2023-03-15T23:35:12.274Z,99134.66
2023-03-15T23:37:40.433Z,99126.66
2023-03-15T23:40:14.010Z,99125.13
2023-03-15T23:42:42.596Z,99128.72
2023-03-15T23:45:12.144Z,99129.59
2023-03-15T23:47:40.962Z,99125.38
2023-03-15T23:50:12.603Z,99126.56
2023-03-15T23:52:41.307Z,99130.91
2023-03-15T23:55:09.936Z,99136.50
2023-03-15T23:57:38.069Z,99131.47
